sensor_id;sensor_type;location;lat;lon;timestamp;P1;durP1;ratioP1;P2;durP2;ratioP2
5245;SDS011;54412;51.206;6.888;2023-09-19T00:00:44;8.27;;;1.93;;
5245;SDS011;54412;51.206;6.888;2023-09-19T00:03:12;5.90;;;2.43;;
5245;SDS011;54412;51.206;6.888;2023-09-19T00:05:38;12.10;;;2.53;;
5245;SDS011;54412;51.206;6.888;2023-09-19T00:08:04;4.27;;;1.63;;
5245;SDS011;54412;51.206;6.888;2023-09-19T00:10:31;11.87;;;2.47;;
5245;SDS011;54412;51.206;6.888;2023-09-19T00:13:04;8.97;;;2.40;;
5245;SDS011;54412;51.206;6.888;2023-09-19T00:15:36;7.43;;;2.00;;
5245;SDS011;54412;51.206;6.888;2023-09-19T00:18:05;9.37;;;2.30;;
5245;SDS011;54412;51.206;6.888;2023-09-19T00:20:32;8.63;;;2.43;;
5245;SDS011;54412;51.206;6.888;2023-09-19T00:23:01;7.80;;;2.20;;
5245;SDS011;54412;51.206;6.888;2023-09-19T00:25:29;10.33;;;2.60;;
5245;SDS011;54412;51.206;6.888;2023-09-19T00:27:54;6.93;;;2.30;;
5245;SDS011;54412;51.206;6.888;2023-09-19T00:30:20;4.97;;;2.00;;
5245;SDS011;54412;51.206;6.888;2023-09-19T00:32:46;14.80;;;2.47;;
5245;SDS011;54412;51.206;6.888;2023-09-19T00:35:14;9.97;;;2.40;;
5245;SDS011;54412;51.206;6.888;2023-09-19T00:37:40;8.40;;;2.37;;
5245;SDS011;54412;51.206;6.888;2023-09-19T00:40:07;4.80;;;2.30;;
5245;SDS011;54412;51.206;6.888;2023-09-19T00:42:41;8.20;;;1.73;;
5245;SDS011;54412;51.206;6.888;2023-09-19T00:45:11;11.97;;;2.67;;
5245;SDS011;54412;51.206;6.888;2023-09-19T00:47:39;9.30;;;2.07;;
5245;SDS011;54412;51.206;6.888;2023-09-19T00:50:09;10.60;;;2.40;;
5245;SDS011;54412;51.206;6.888;2023-09-19T00:52:36;10.50;;;2.40;;
5245;SDS011;54412;51.206;6.888;2023-09-19T00:55:04;13.77;;;2.70;;
5245;SDS011;54412;51.206;6.888;2023-09-19T00:57:32;7.47;;;2.57;;
5245;SDS011;54412;51.206;6.888;2023-09-19T00:59:59;7.47;;;2.27;;
5245;SDS011;54412;51.206;6.888;2023-09-19T01:02:32;10.90;;;2.77;;
5245;SDS011;54412;51.206;6.888;2023-09-19T01:04:59;9.63;;;2.90;;
5245;SDS011;54412;51.206;6.888;2023-09-19T01:07:26;14.70;;;2.67;;
5245;SDS011;54412;51.206;6.888;2023-09-19T01:09:55;13.40;;;3.10;;
5245;SDS011;54412;51.206;6.888;2023-09-19T01:12:33;6.10;;;2.40;;
5245;SDS011;54412;51.206;6.888;2023-09-19T01:15:21;4.83;;;1.50;;
5245;SDS011;54412;51.206;6.888;2023-09-19T01:18:16;9.93;;;3.10;;
5245;SDS011;54412;51.206;6.888;2023-09-19T01:21:11;13.20;;;2.47;;
5245;SDS011;54412;51.206;6.888;2023-09-19T01:30:18;16.63;;;2.53;;
5245;SDS011;54412;51.206;6.888;2023-09-19T01:32:50;7.07;;;2.20;;
5245;SDS011;54412;51.206;6.888;2023-09-19T01:35:17;15.40;;;3.30;;
5245;SDS011;54412;51.206;6.888;2023-09-19T01:37:44;8.87;;;2.30;;
5245;SDS011;54412;51.206;6.888;2023-09-19T01:40:11;5.13;;;2.03;;
5245;SDS011;54412;51.206;6.888;2023-09-19T01:42:54;11.10;;;2.23;;
5245;SDS011;54412;51.206;6.888;2023-09-19T01:51:07;8.80;;;2.77;;
5245;SDS011;54412;51.206;6.888;2023-09-19T01:53:41;9.87;;;2.53;;
5245;SDS011;54412;51.206;6.888;2023-09-19T01:56:29;10.00;;;2.40;;
5245;SDS011;54412;51.206;6.888;2023-09-19T01:59:04;9.00;;;2.70;;
5245;SDS011;54412;51.206;6.888;2023-09-19T02:01:36;11.40;;;2.17;;
5245;SDS011;54412;51.206;6.888;2023-09-19T02:04:04;10.03;;;2.80;;
5245;SDS011;54412;51.206;6.888;2023-09-19T02:06:30;5.00;;;1.70;;
5245;SDS011;54412;51.206;6.888;2023-09-19T02:08:57;8.43;;;2.07;;
5245;SDS011;54412;51.206;6.888;2023-09-19T02:11:24;11.93;;;2.80;;
5245;SDS011;54412;51.206;6.888;2023-09-19T02:13:50;6.93;;;1.97;;
5245;SDS011;54412;51.206;6.888;2023-09-19T02:16:19;9.40;;;2.70;;
5245;SDS011;54412;51.206;6.888;2023-09-19T02:18:46;17.67;;;2.70;;
5245;SDS011;54412;51.206;6.888;2023-09-19T02:21:15;5.60;;;2.30;;
5245;SDS011;54412;51.206;6.888;2023-09-19T02:23:42;9.20;;;2.60;;
5245;SDS011;54412;51.206;6.888;2023-09-19T02:26:09;10.23;;;2.93;;
5245;SDS011;54412;51.206;6.888;2023-09-19T02:28:37;14.93;;;2.23;;
5245;SDS011;54412;51.206;6.888;2023-09-19T02:31:02;10.60;;;2.47;;
5245;SDS011;54412;51.206;6.888;2023-09-19T02:33:30;12.03;;;2.70;;
5245;SDS011;54412;51.206;6.888;2023-09-19T02:36:00;12.27;;;2.50;;
5245;SDS011;54412;51.206;6.888;2023-09-19T02:38:28;11.53;;;2.37;;
5245;SDS011;54412;51.206;6.888;2023-09-19T02:40:54;7.43;;;2.30;;
5245;SDS011;54412;51.206;6.888;2023-09-19T02:43:23;6.97;;;1.77;;
5245;SDS011;54412;51.206;6.888;2023-09-19T02:45:49;9.03;;;2.70;;
5245;SDS011;54412;51.206;6.888;2023-09-19T02:48:16;8.83;;;2.33;;
5245;SDS011;54412;51.206;6.888;2023-09-19T02:50:43;10.03;;;2.50;;
5245;SDS011;54412;51.206;6.888;2023-09-19T02:53:09;8.70;;;2.20;;
5245;SDS011;54412;51.206;6.888;2023-09-19T02:55:37;9.17;;;2.30;;
5245;SDS011;54412;51.206;6.888;2023-09-19T02:58:05;5.17;;;2.13;;
5245;SDS011;54412;51.206;6.888;2023-09-19T03:00:36;10.57;;;2.40;;
5245;SDS011;54412;51.206;6.888;2023-09-19T03:03:02;9.63;;;2.70;;
5245;SDS011;54412;51.206;6.888;2023-09-19T03:05:29;7.73;;;2.70;;
5245;SDS011;54412;51.206;6.888;2023-09-19T03:07:56;11.57;;;2.80;;
5245;SDS011;54412;51.206;6.888;2023-09-19T03:10:22;12.33;;;3.10;;
5245;SDS011;54412;51.206;6.888;2023-09-19T03:12:49;9.07;;;2.10;;
5245;SDS011;54412;51.206;6.888;2023-09-19T03:15:15;8.33;;;2.70;;
5245;SDS011;54412;51.206;6.888;2023-09-19T03:17:44;13.70;;;3.00;;
5245;SDS011;54412;51.206;6.888;2023-09-19T03:20:10;9.53;;;2.23;;
5245;SDS011;54412;51.206;6.888;2023-09-19T03:22:38;9.17;;;2.90;;
5245;SDS011;54412;51.206;6.888;2023-09-19T03:25:07;8.77;;;2.53;;
5245;SDS011;54412;51.206;6.888;2023-09-19T03:27:36;14.47;;;3.30;;
5245;SDS011;54412;51.206;6.888;2023-09-19T03:30:03;11.17;;;2.70;;
5245;SDS011;54412;51.206;6.888;2023-09-19T03:32:33;7.97;;;2.03;;
5245;SDS011;54412;51.206;6.888;2023-09-19T03:35:01;10.83;;;2.67;;
5245;SDS011;54412;51.206;6.888;2023-09-19T03:37:27;9.80;;;2.30;;
5245;SDS011;54412;51.206;6.888;2023-09-19T03:39:53;8.73;;;2.97;;
5245;SDS011;54412;51.206;6.888;2023-09-19T03:42:18;13.70;;;3.07;;
5245;SDS011;54412;51.206;6.888;2023-09-19T03:44:50;8.67;;;2.43;;
5245;SDS011;54412;51.206;6.888;2023-09-19T03:47:17;5.57;;;2.20;;
5245;SDS011;54412;51.206;6.888;2023-09-19T03:49:44;12.47;;;2.70;;
5245;SDS011;54412;51.206;6.888;2023-09-19T03:52:09;7.17;;;2.40;;
5245;SDS011;54412;51.206;6.888;2023-09-19T03:54:36;8.30;;;2.73;;
5245;SDS011;54412;51.206;6.888;2023-09-19T03:57:02;10.07;;;3.10;;
5245;SDS011;54412;51.206;6.888;2023-09-19T03:59:29;5.57;;;2.23;;
5245;SDS011;54412;51.206;6.888;2023-09-19T04:01:54;13.07;;;3.50;;
5245;SDS011;54412;51.206;6.888;2023-09-19T04:04:22;10.73;;;2.40;;
5245;SDS011;54412;51.206;6.888;2023-09-19T04:06:49;6.87;;;2.20;;
5245;SDS011;54412;51.206;6.888;2023-09-19T04:09:18;10.07;;;2.87;;
5245;SDS011;54412;51.206;6.888;2023-09-19T04:11:43;6.30;;;2.60;;
5245;SDS011;54412;51.206;6.888;2023-09-19T04:14:09;9.07;;;2.50;;
5245;SDS011;54412;51.206;6.888;2023-09-19T04:16:35;6.50;;;2.57;;
5245;SDS011;54412;51.206;6.888;2023-09-19T04:19:01;14.83;;;2.73;;
5245;SDS011;54412;51.206;6.888;2023-09-19T04:21:27;11.33;;;2.80;;
5245;SDS011;54412;51.206;6.888;2023-09-19T04:23:54;7.30;;;2.10;;
5245;SDS011;54412;51.206;6.888;2023-09-19T04:26:19;8.97;;;2.67;;
5245;SDS011;54412;51.206;6.888;2023-09-19T04:28:46;13.53;;;2.93;;
5245;SDS011;54412;51.206;6.888;2023-09-19T04:31:12;9.47;;;2.73;;
5245;SDS011;54412;51.206;6.888;2023-09-19T04:33:39;16.40;;;2.83;;
5245;SDS011;54412;51.206;6.888;2023-09-19T04:36:04;9.13;;;3.13;;
5245;SDS011;54412;51.206;6.888;2023-09-19T04:38:32;8.97;;;3.07;;
5245;SDS011;54412;51.206;6.888;2023-09-19T04:40:58;12.67;;;2.80;;
5245;SDS011;54412;51.206;6.888;2023-09-19T04:43:25;11.80;;;3.37;;
5245;SDS011;54412;51.206;6.888;2023-09-19T04:45:51;10.13;;;3.07;;
5245;SDS011;54412;51.206;6.888;2023-09-19T04:48:21;6.47;;;3.03;;
5245;SDS011;54412;51.206;6.888;2023-09-19T04:50:50;8.93;;;2.43;;
5245;SDS011;54412;51.206;6.888;2023-09-19T04:53:19;11.83;;;2.70;;
5245;SDS011;54412;51.206;6.888;2023-09-19T04:55:49;8.10;;;2.70;;
5245;SDS011;54412;51.206;6.888;2023-09-19T04:58:17;7.83;;;2.83;;
5245;SDS011;54412;51.206;6.888;2023-09-19T05:00:45;6.80;;;2.40;;
5245;SDS011;54412;51.206;6.888;2023-09-19T05:03:10;8.57;;;3.40;;
5245;SDS011;54412;51.206;6.888;2023-09-19T05:05:36;3.57;;;2.03;;
5245;SDS011;54412;51.206;6.888;2023-09-19T05:08:03;16.00;;;3.17;;
5245;SDS011;54412;51.206;6.888;2023-09-19T05:10:30;10.23;;;2.87;;
5245;SDS011;54412;51.206;6.888;2023-09-19T05:12:57;11.33;;;3.03;;
5245;SDS011;54412;51.206;6.888;2023-09-19T05:15:23;16.17;;;3.43;;
5245;SDS011;54412;51.206;6.888;2023-09-19T05:17:49;14.10;;;3.83;;
5245;SDS011;54412;51.206;6.888;2023-09-19T05:20:17;9.47;;;2.67;;
5245;SDS011;54412;51.206;6.888;2023-09-19T05:23:01;12.83;;;3.10;;
5245;SDS011;54412;51.206;6.888;2023-09-19T05:25:33;12.43;;;2.93;;
5245;SDS011;54412;51.206;6.888;2023-09-19T05:28:07;10.13;;;3.23;;
5245;SDS011;54412;51.206;6.888;2023-09-19T05:30:36;10.43;;;2.40;;
5245;SDS011;54412;51.206;6.888;2023-09-19T05:33:06;11.00;;;3.73;;
5245;SDS011;54412;51.206;6.888;2023-09-19T05:35:33;7.37;;;2.30;;
5245;SDS011;54412;51.206;6.888;2023-09-19T05:37:59;12.37;;;3.40;;
5245;SDS011;54412;51.206;6.888;2023-09-19T05:40:25;8.17;;;2.30;;
5245;SDS011;54412;51.206;6.888;2023-09-19T05:42:52;9.80;;;2.67;;
5245;SDS011;54412;51.206;6.888;2023-09-19T05:45:17;11.70;;;2.83;;
5245;SDS011;54412;51.206;6.888;2023-09-19T05:47:50;13.30;;;2.30;;
5245;SDS011;54412;51.206;6.888;2023-09-19T05:50:20;12.80;;;3.00;;
5245;SDS011;54412;51.206;6.888;2023-09-19T05:52:53;15.63;;;3.37;;
5245;SDS011;54412;51.206;6.888;2023-09-19T05:55:20;20.53;;;3.80;;
5245;SDS011;54412;51.206;6.888;2023-09-19T05:57:52;11.37;;;2.90;;
5245;SDS011;54412;51.206;6.888;2023-09-19T06:00:19;8.47;;;3.43;;
5245;SDS011;54412;51.206;6.888;2023-09-19T06:02:51;13.50;;;2.83;;
5245;SDS011;54412;51.206;6.888;2023-09-19T06:05:22;7.33;;;2.23;;
5245;SDS011;54412;51.206;6.888;2023-09-19T06:07:52;10.17;;;2.87;;
5245;SDS011;54412;51.206;6.888;2023-09-19T06:10:18;13.70;;;2.67;;
5245;SDS011;54412;51.206;6.888;2023-09-19T06:12:48;7.67;;;2.30;;
5245;SDS011;54412;51.206;6.888;2023-09-19T06:15:14;13.10;;;3.30;;
5245;SDS011;54412;51.206;6.888;2023-09-19T06:17:46;15.13;;;3.30;;
5245;SDS011;54412;51.206;6.888;2023-09-19T06:20:14;14.77;;;3.40;;
5245;SDS011;54412;51.206;6.888;2023-09-19T06:22:42;8.13;;;3.27;;
5245;SDS011;54412;51.206;6.888;2023-09-19T06:25:09;11.87;;;3.33;;
5245;SDS011;54412;51.206;6.888;2023-09-19T06:27:40;13.33;;;2.73;;
5245;SDS011;54412;51.206;6.888;2023-09-19T06:30:07;17.87;;;3.73;;
5245;SDS011;54412;51.206;6.888;2023-09-19T06:32:34;19.00;;;4.30;;
5245;SDS011;54412;51.206;6.888;2023-09-19T06:35:01;11.13;;;2.70;;
5245;SDS011;54412;51.206;6.888;2023-09-19T06:37:28;19.60;;;2.67;;
5245;SDS011;54412;51.206;6.888;2023-09-19T06:39:54;13.70;;;3.10;;
5245;SDS011;54412;51.206;6.888;2023-09-19T06:42:21;19.60;;;3.20;;
5245;SDS011;54412;51.206;6.888;2023-09-19T06:44:48;10.17;;;3.47;;
5245;SDS011;54412;51.206;6.888;2023-09-19T06:47:14;8.27;;;3.07;;
5245;SDS011;54412;51.206;6.888;2023-09-19T06:49:41;10.70;;;2.63;;
5245;SDS011;54412;51.206;6.888;2023-09-19T06:52:09;17.50;;;3.27;;
5245;SDS011;54412;51.206;6.888;2023-09-19T06:54:35;7.70;;;2.27;;
5245;SDS011;54412;51.206;6.888;2023-09-19T06:57:01;12.90;;;2.60;;
5245;SDS011;54412;51.206;6.888;2023-09-19T06:59:27;13.70;;;2.93;;
5245;SDS011;54412;51.206;6.888;2023-09-19T07:01:52;18.10;;;3.20;;
5245;SDS011;54412;51.206;6.888;2023-09-19T07:04:18;16.23;;;3.20;;
5245;SDS011;54412;51.206;6.888;2023-09-19T07:06:50;16.43;;;3.10;;
5245;SDS011;54412;51.206;6.888;2023-09-19T07:09:16;11.27;;;2.70;;
5245;SDS011;54412;51.206;6.888;2023-09-19T07:11:44;10.03;;;2.40;;
5245;SDS011;54412;51.206;6.888;2023-09-19T07:14:10;10.77;;;2.63;;
5245;SDS011;54412;51.206;6.888;2023-09-19T07:16:37;13.47;;;2.90;;
5245;SDS011;54412;51.206;6.888;2023-09-19T07:19:04;12.70;;;2.87;;
5245;SDS011;54412;51.206;6.888;2023-09-19T07:21:30;15.50;;;2.83;;
5245;SDS011;54412;51.206;6.888;2023-09-19T07:23:59;6.03;;;2.37;;
5245;SDS011;54412;51.206;6.888;2023-09-19T07:26:26;14.37;;;3.10;;
5245;SDS011;54412;51.206;6.888;2023-09-19T07:28:53;11.10;;;2.77;;
5245;SDS011;54412;51.206;6.888;2023-09-19T07:31:19;18.60;;;3.53;;
5245;SDS011;54412;51.206;6.888;2023-09-19T07:33:45;18.77;;;3.40;;
5245;SDS011;54412;51.206;6.888;2023-09-19T07:36:11;11.47;;;2.57;;
5245;SDS011;54412;51.206;6.888;2023-09-19T07:38:38;13.10;;;2.70;;
5245;SDS011;54412;51.206;6.888;2023-09-19T07:41:05;13.50;;;3.07;;
5245;SDS011;54412;51.206;6.888;2023-09-19T07:43:34;11.40;;;2.90;;
5245;SDS011;54412;51.206;6.888;2023-09-19T07:46:07;17.20;;;3.40;;
5245;SDS011;54412;51.206;6.888;2023-09-19T07:48:36;12.67;;;2.80;;
5245;SDS011;54412;51.206;6.888;2023-09-19T07:51:06;9.77;;;2.90;;
5245;SDS011;54412;51.206;6.888;2023-09-19T07:53:33;15.57;;;2.87;;
5245;SDS011;54412;51.206;6.888;2023-09-19T07:56:07;14.77;;;3.10;;
5245;SDS011;54412;51.206;6.888;2023-09-19T07:58:34;14.80;;;3.50;;
5245;SDS011;54412;51.206;6.888;2023-09-19T08:01:06;8.10;;;2.77;;
5245;SDS011;54412;51.206;6.888;2023-09-19T08:03:34;9.53;;;2.43;;
5245;SDS011;54412;51.206;6.888;2023-09-19T08:06:06;10.30;;;2.90;;
5245;SDS011;54412;51.206;6.888;2023-09-19T08:08:32;10.40;;;3.27;;
5245;SDS011;54412;51.206;6.888;2023-09-19T08:11:02;16.03;;;2.90;;
5245;SDS011;54412;51.206;6.888;2023-09-19T08:13:37;8.33;;;2.47;;
5245;SDS011;54412;51.206;6.888;2023-09-19T08:16:13;4.73;;;2.30;;
5245;SDS011;54412;51.206;6.888;2023-09-19T08:18:40;8.37;;;2.40;;
5245;SDS011;54412;51.206;6.888;2023-09-19T08:21:07;6.10;;;2.50;;
5245;SDS011;54412;51.206;6.888;2023-09-19T08:23:35;16.33;;;3.30;;
5245;SDS011;54412;51.206;6.888;2023-09-19T08:26:03;15.20;;;2.40;;
5245;SDS011;54412;51.206;6.888;2023-09-19T08:28:33;11.47;;;3.43;;
5245;SDS011;54412;51.206;6.888;2023-09-19T08:31:03;9.40;;;3.30;;
5245;SDS011;54412;51.206;6.888;2023-09-19T08:33:34;14.60;;;2.90;;
5245;SDS011;54412;51.206;6.888;2023-09-19T08:36:04;11.23;;;3.00;;
5245;SDS011;54412;51.206;6.888;2023-09-19T08:38:31;11.60;;;3.07;;
5245;SDS011;54412;51.206;6.888;2023-09-19T08:40:59;12.03;;;3.00;;
5245;SDS011;54412;51.206;6.888;2023-09-19T08:43:29;9.50;;;3.00;;
5245;SDS011;54412;51.206;6.888;2023-09-19T08:46:02;11.70;;;3.00;;
5245;SDS011;54412;51.206;6.888;2023-09-19T08:48:43;15.73;;;3.07;;
5245;SDS011;54412;51.206;6.888;2023-09-19T08:51:18;10.77;;;3.13;;
5245;SDS011;54412;51.206;6.888;2023-09-19T08:54:07;10.87;;;2.90;;
5245;SDS011;54412;51.206;6.888;2023-09-19T08:56:41;13.50;;;2.93;;
5245;SDS011;54412;51.206;6.888;2023-09-19T08:59:09;6.73;;;2.03;;
5245;SDS011;54412;51.206;6.888;2023-09-19T09:01:36;18.40;;;3.47;;
5245;SDS011;54412;51.206;6.888;2023-09-19T09:04:06;12.27;;;2.80;;
5245;SDS011;54412;51.206;6.888;2023-09-19T09:06:35;12.20;;;3.73;;
5245;SDS011;54412;51.206;6.888;2023-09-19T09:09:02;15.83;;;2.70;;
5245;SDS011;54412;51.206;6.888;2023-09-19T09:11:28;8.80;;;2.17;;
5245;SDS011;54412;51.206;6.888;2023-09-19T09:13:57;5.40;;;2.57;;
5245;SDS011;54412;51.206;6.888;2023-09-19T09:16:23;7.77;;;2.80;;
5245;SDS011;54412;51.206;6.888;2023-09-19T09:18:50;9.07;;;2.87;;
5245;SDS011;54412;51.206;6.888;2023-09-19T09:21:19;7.40;;;2.80;;
5245;SDS011;54412;51.206;6.888;2023-09-19T09:23:47;8.60;;;3.10;;
5245;SDS011;54412;51.206;6.888;2023-09-19T09:26:14;10.20;;;2.43;;
5245;SDS011;54412;51.206;6.888;2023-09-19T09:28:44;11.63;;;3.10;;
5245;SDS011;54412;51.206;6.888;2023-09-19T09:31:22;11.10;;;3.03;;
5245;SDS011;54412;51.206;6.888;2023-09-19T09:33:53;9.60;;;2.60;;
5245;SDS011;54412;51.206;6.888;2023-09-19T09:36:37;13.93;;;2.80;;
5245;SDS011;54412;51.206;6.888;2023-09-19T09:39:06;8.00;;;2.10;;
5245;SDS011;54412;51.206;6.888;2023-09-19T09:41:43;11.67;;;2.87;;
5245;SDS011;54412;51.206;6.888;2023-09-19T09:44:14;11.87;;;2.77;;
5245;SDS011;54412;51.206;6.888;2023-09-19T09:46:46;16.90;;;2.93;;
5245;SDS011;54412;51.206;6.888;2023-09-19T09:49:22;17.63;;;2.57;;
5245;SDS011;54412;51.206;6.888;2023-09-19T09:52:00;10.40;;;2.43;;
5245;SDS011;54412;51.206;6.888;2023-09-19T09:54:34;17.30;;;2.57;;
5245;SDS011;54412;51.206;6.888;2023-09-19T09:57:04;10.97;;;2.97;;
5245;SDS011;54412;51.206;6.888;2023-09-19T09:59:52;20.90;;;3.33;;
5245;SDS011;54412;51.206;6.888;2023-09-19T10:02:27;9.00;;;3.27;;
5245;SDS011;54412;51.206;6.888;2023-09-19T10:04:58;14.93;;;3.87;;
5245;SDS011;54412;51.206;6.888;2023-09-19T10:07:40;9.50;;;2.47;;
5245;SDS011;54412;51.206;6.888;2023-09-19T10:10:12;5.83;;;2.03;;
5245;SDS011;54412;51.206;6.888;2023-09-19T10:12:45;6.50;;;2.20;;
5245;SDS011;54412;51.206;6.888;2023-09-19T10:15:16;9.13;;;2.33;;
5245;SDS011;54412;51.206;6.888;2023-09-19T10:17:46;7.50;;;2.40;;
5245;SDS011;54412;51.206;6.888;2023-09-19T10:20:13;11.53;;;3.27;;
5245;SDS011;54412;51.206;6.888;2023-09-19T10:22:49;9.20;;;2.93;;
5245;SDS011;54412;51.206;6.888;2023-09-19T10:25:24;6.77;;;2.17;;
5245;SDS011;54412;51.206;6.888;2023-09-19T10:27:53;22.13;;;3.00;;
5245;SDS011;54412;51.206;6.888;2023-09-19T10:30:22;7.33;;;2.70;;
5245;SDS011;54412;51.206;6.888;2023-09-19T10:32:53;16.30;;;3.50;;
5245;SDS011;54412;51.206;6.888;2023-09-19T10:35:28;17.80;;;2.47;;
5245;SDS011;54412;51.206;6.888;2023-09-19T10:37:57;6.27;;;1.87;;
5245;SDS011;54412;51.206;6.888;2023-09-19T10:40:27;6.93;;;2.07;;
5245;SDS011;54412;51.206;6.888;2023-09-19T10:43:03;11.27;;;2.50;;
5245;SDS011;54412;51.206;6.888;2023-09-19T10:45:34;10.73;;;2.17;;
5245;SDS011;54412;51.206;6.888;2023-09-19T10:48:03;7.57;;;2.27;;
5245;SDS011;54412;51.206;6.888;2023-09-19T10:50:31;4.73;;;1.87;;
5245;SDS011;54412;51.206;6.888;2023-09-19T10:53:10;7.90;;;2.70;;
5245;SDS011;54412;51.206;6.888;2023-09-19T10:55:38;7.07;;;2.80;;
5245;SDS011;54412;51.206;6.888;2023-09-19T10:58:05;8.57;;;2.70;;
5245;SDS011;54412;51.206;6.888;2023-09-19T11:00:52;7.67;;;2.33;;
5245;SDS011;54412;51.206;6.888;2023-09-19T11:03:20;7.87;;;2.43;;
5245;SDS011;54412;51.206;6.888;2023-09-19T11:06:05;6.60;;;2.87;;
5245;SDS011;54412;51.206;6.888;2023-09-19T11:30:43;4.87;;;1.87;;
5245;SDS011;54412;51.206;6.888;2023-09-19T11:33:29;11.83;;;3.77;;
5245;SDS011;54412;51.206;6.888;2023-09-19T11:36:08;10.93;;;2.50;;
5245;SDS011;54412;51.206;6.888;2023-09-19T11:46:48;6.37;;;2.17;;
5245;SDS011;54412;51.206;6.888;2023-09-19T11:49:30;6.27;;;2.80;;
5245;SDS011;54412;51.206;6.888;2023-09-19T11:52:01;6.07;;;2.20;;
5245;SDS011;54412;51.206;6.888;2023-09-19T11:54:31;6.57;;;2.40;;
5245;SDS011;54412;51.206;6.888;2023-09-19T11:56:58;3.70;;;2.20;;
5245;SDS011;54412;51.206;6.888;2023-09-19T11:59:31;6.13;;;2.50;;
5245;SDS011;54412;51.206;6.888;2023-09-19T12:02:00;7.60;;;2.50;;
5245;SDS011;54412;51.206;6.888;2023-09-19T12:04:33;8.77;;;2.93;;
5245;SDS011;54412;51.206;6.888;2023-09-19T12:07:04;10.30;;;2.50;;
5245;SDS011;54412;51.206;6.888;2023-09-19T12:09:41;4.10;;;2.20;;
5245;SDS011;54412;51.206;6.888;2023-09-19T12:12:27;6.53;;;2.13;;
5245;SDS011;54412;51.206;6.888;2023-09-19T12:14:54;15.77;;;3.27;;
5245;SDS011;54412;51.206;6.888;2023-09-19T12:17:24;6.10;;;1.73;;
5245;SDS011;54412;51.206;6.888;2023-09-19T12:20:02;12.03;;;1.97;;
5245;SDS011;54412;51.206;6.888;2023-09-19T12:22:45;13.70;;;3.00;;
5245;SDS011;54412;51.206;6.888;2023-09-19T12:25:15;10.17;;;3.10;;
5245;SDS011;54412;51.206;6.888;2023-09-19T12:27:46;5.53;;;1.80;;
5245;SDS011;54412;51.206;6.888;2023-09-19T12:30:18;6.23;;;1.97;;
5245;SDS011;54412;51.206;6.888;2023-09-19T12:32:46;7.97;;;2.30;;
5245;SDS011;54412;51.206;6.888;2023-09-19T12:38:25;5.57;;;1.97;;
5245;SDS011;54412;51.206;6.888;2023-09-19T12:40:57;8.67;;;1.90;;
5245;SDS011;54412;51.206;6.888;2023-09-19T12:43:30;8.70;;;1.97;;
5245;SDS011;54412;51.206;6.888;2023-09-19T12:46:02;5.43;;;1.80;;
5245;SDS011;54412;51.206;6.888;2023-09-19T12:48:29;6.03;;;2.00;;
5245;SDS011;54412;51.206;6.888;2023-09-19T12:53:36;4.73;;;2.43;;
5245;SDS011;54412;51.206;6.888;2023-09-19T12:56:12;11.13;;;2.30;;
5245;SDS011;54412;51.206;6.888;2023-09-19T12:58:53;5.87;;;2.00;;
5245;SDS011;54412;51.206;6.888;2023-09-19T13:01:23;7.70;;;2.60;;
5245;SDS011;54412;51.206;6.888;2023-09-19T13:04:10;5.23;;;1.70;;
5245;SDS011;54412;51.206;6.888;2023-09-19T13:09:25;6.80;;;1.90;;
5245;SDS011;54412;51.206;6.888;2023-09-19T13:11:59;4.87;;;1.60;;
5245;SDS011;54412;51.206;6.888;2023-09-19T13:14:27;3.23;;;1.80;;
5245;SDS011;54412;51.206;6.888;2023-09-19T13:22:39;6.17;;;1.90;;
5245;SDS011;54412;51.206;6.888;2023-09-19T13:25:16;5.50;;;2.13;;
5245;SDS011;54412;51.206;6.888;2023-09-19T13:27:44;4.60;;;1.60;;
5245;SDS011;54412;51.206;6.888;2023-09-19T13:30:16;5.40;;;1.70;;
5245;SDS011;54412;51.206;6.888;2023-09-19T13:32:43;2.90;;;1.50;;
5245;SDS011;54412;51.206;6.888;2023-09-19T13:35:12;6.30;;;1.80;;
5245;SDS011;54412;51.206;6.888;2023-09-19T13:37:39;4.37;;;1.67;;
5245;SDS011;54412;51.206;6.888;2023-09-19T13:42:34;3.43;;;1.70;;
5245;SDS011;54412;51.206;6.888;2023-09-19T13:45:02;3.60;;;1.60;;
5245;SDS011;54412;51.206;6.888;2023-09-19T13:47:32;1.53;;;1.03;;
5245;SDS011;54412;51.206;6.888;2023-09-19T13:49:59;7.83;;;1.87;;
5245;SDS011;54412;51.206;6.888;2023-09-19T13:52:29;3.80;;;1.83;;
5245;SDS011;54412;51.206;6.888;2023-09-19T13:54:55;2.70;;;1.50;;
5245;SDS011;54412;51.206;6.888;2023-09-19T13:57:22;4.13;;;1.30;;
5245;SDS011;54412;51.206;6.888;2023-09-19T13:59:49;2.73;;;1.17;;
5245;SDS011;54412;51.206;6.888;2023-09-19T14:02:16;2.90;;;1.40;;
5245;SDS011;54412;51.206;6.888;2023-09-19T14:04:47;3.90;;;1.40;;
5245;SDS011;54412;51.206;6.888;2023-09-19T14:07:17;3.90;;;1.13;;
5245;SDS011;54412;51.206;6.888;2023-09-19T14:09:45;5.93;;;1.40;;
5245;SDS011;54412;51.206;6.888;2023-09-19T14:12:12;4.43;;;1.60;;
5245;SDS011;54412;51.206;6.888;2023-09-19T14:14:38;3.17;;;1.40;;
5245;SDS011;54412;51.206;6.888;2023-09-19T14:17:04;8.60;;;1.67;;
5245;SDS011;54412;51.206;6.888;2023-09-19T14:19:32;4.67;;;1.40;;
5245;SDS011;54412;51.206;6.888;2023-09-19T14:21:58;4.63;;;1.37;;
5245;SDS011;54412;51.206;6.888;2023-09-19T14:24:25;5.53;;;1.20;;
5245;SDS011;54412;51.206;6.888;2023-09-19T14:26:51;6.53;;;1.60;;
5245;SDS011;54412;51.206;6.888;2023-09-19T14:29:16;4.40;;;1.20;;
5245;SDS011;54412;51.206;6.888;2023-09-19T14:31:42;2.00;;;1.13;;
5245;SDS011;54412;51.206;6.888;2023-09-19T14:34:08;10.63;;;1.23;;
5245;SDS011;54412;51.206;6.888;2023-09-19T14:36:35;4.57;;;1.23;;
5245;SDS011;54412;51.206;6.888;2023-09-19T14:39:01;1.90;;;1.30;;
5245;SDS011;54412;51.206;6.888;2023-09-19T14:41:27;2.90;;;1.50;;
5245;SDS011;54412;51.206;6.888;2023-09-19T14:43:54;2.67;;;0.90;;
5245;SDS011;54412;51.206;6.888;2023-09-19T14:46:22;1.77;;;1.00;;
5245;SDS011;54412;51.206;6.888;2023-09-19T14:48:50;3.10;;;1.23;;
5245;SDS011;54412;51.206;6.888;2023-09-19T14:51:17;2.93;;;1.13;;
5245;SDS011;54412;51.206;6.888;2023-09-19T14:53:44;1.80;;;0.70;;
5245;SDS011;54412;51.206;6.888;2023-09-19T14:56:12;4.57;;;1.20;;
5245;SDS011;54412;51.206;6.888;2023-09-19T14:58:42;9.83;;;1.20;;
5245;SDS011;54412;51.206;6.888;2023-09-19T15:01:09;6.53;;;1.30;;
5245;SDS011;54412;51.206;6.888;2023-09-19T15:03:36;2.80;;;1.30;;
5245;SDS011;54412;51.206;6.888;2023-09-19T15:06:08;5.10;;;1.40;;
5245;SDS011;54412;51.206;6.888;2023-09-19T15:08:44;3.37;;;0.97;;
5245;SDS011;54412;51.206;6.888;2023-09-19T15:11:12;4.37;;;1.50;;
5245;SDS011;54412;51.206;6.888;2023-09-19T15:13:41;4.83;;;1.30;;
5245;SDS011;54412;51.206;6.888;2023-09-19T15:16:09;5.07;;;0.90;;
5245;SDS011;54412;51.206;6.888;2023-09-19T15:18:40;2.07;;;1.00;;
5245;SDS011;54412;51.206;6.888;2023-09-19T15:21:08;6.03;;;1.27;;
5245;SDS011;54412;51.206;6.888;2023-09-19T15:23:36;1.80;;;1.10;;
5245;SDS011;54412;51.206;6.888;2023-09-19T15:26:04;1.37;;;0.97;;
5245;SDS011;54412;51.206;6.888;2023-09-19T15:28:31;2.90;;;1.20;;
5245;SDS011;54412;51.206;6.888;2023-09-19T15:31:02;9.17;;;1.90;;
5245;SDS011;54412;51.206;6.888;2023-09-19T15:33:32;6.27;;;1.20;;
5245;SDS011;54412;51.206;6.888;2023-09-19T15:36:09;6.33;;;1.20;;
5245;SDS011;54412;51.206;6.888;2023-09-19T15:44:00;4.27;;;1.10;;
5245;SDS011;54412;51.206;6.888;2023-09-19T15:46:28;4.53;;;0.87;;
5245;SDS011;54412;51.206;6.888;2023-09-19T15:48:56;4.03;;;1.13;;
5245;SDS011;54412;51.206;6.888;2023-09-19T15:51:23;2.20;;;1.07;;
5245;SDS011;54412;51.206;6.888;2023-09-19T15:53:50;1.50;;;1.07;;
5245;SDS011;54412;51.206;6.888;2023-09-19T15:56:18;3.40;;;0.97;;
5245;SDS011;54412;51.206;6.888;2023-09-19T15:58:46;3.47;;;1.80;;
5245;SDS011;54412;51.206;6.888;2023-09-19T16:01:14;1.53;;;1.00;;
5245;SDS011;54412;51.206;6.888;2023-09-19T16:03:45;2.00;;;1.17;;
5245;SDS011;54412;51.206;6.888;2023-09-19T16:06:18;2.53;;;1.00;;
5245;SDS011;54412;51.206;6.888;2023-09-19T16:08:48;6.47;;;1.30;;
5245;SDS011;54412;51.206;6.888;2023-09-19T16:11:17;2.40;;;1.40;;
5245;SDS011;54412;51.206;6.888;2023-09-19T16:13:44;1.13;;;0.77;;